createdAt,value
2019-01-08T00:01:21.347Z,3.33
2019-01-08T00:03:49.656Z,1.82
2019-01-08T00:06:17.932Z,1.70
2019-01-08T00:08:46.285Z,3.85
2019-01-08T00:11:14.590Z,1.82
2019-01-08T00:13:42.868Z,3.17
2019-01-08T00:16:11.147Z,1.47
2019-01-08T00:18:39.458Z,1.92
2019-01-08T00:21:07.742Z,3.95
2019-01-08T00:23:36.020Z,2.58
2019-01-08T00:26:04.397Z,1.40
2019-01-08T00:28:32.677Z,3.10
2019-01-08T00:31:00.961Z,2.17
2019-01-08T00:33:29.271Z,3.20
2019-01-08T00:35:57.617Z,1.37
2019-01-08T00:38:25.899Z,1.87
2019-01-08T00:40:54.226Z,2.02
2019-01-08T00:43:22.509Z,2.27
2019-01-08T00:45:50.801Z,2.95
2019-01-08T00:48:19.109Z,2.27
2019-01-08T00:50:47.386Z,2.90
2019-01-08T00:53:15.737Z,0.88
2019-01-08T00:55:44.186Z,3.47
2019-01-08T00:58:12.472Z,3.33
2019-01-08T01:00:40.758Z,2.77
2019-01-08T01:03:09.097Z,3.95
2019-01-08T01:05:37.449Z,4.20
2019-01-08T01:08:05.731Z,2.87
2019-01-08T01:10:34.048Z,3.08
2019-01-08T01:13:02.339Z,1.82
2019-01-08T01:15:30.620Z,4.97
2019-01-08T01:17:59.004Z,2.40
2019-01-08T01:20:27.299Z,1.57
2019-01-08T01:22:55.576Z,1.85
2019-01-08T01:25:23.944Z,2.02
2019-01-08T01:27:52.229Z,2.30
2019-01-08T01:30:20.510Z,1.65
2019-01-08T01:32:48.834Z,1.65
2019-01-08T01:35:17.106Z,2.62
2019-01-08T01:37:45.377Z,2.55
2019-01-08T01:40:13.697Z,2.87
2019-01-08T01:42:41.979Z,1.80
2019-01-08T01:45:10.272Z,1.92
2019-01-08T01:47:38.588Z,2.60
2019-01-08T01:50:06.864Z,2.62
2019-01-08T01:52:35.134Z,2.55
2019-01-08T01:55:03.530Z,1.67
2019-01-08T01:57:31.799Z,2.58
2019-01-08T02:00:00.174Z,1.95
2019-01-08T02:02:28.499Z,3.58
2019-01-08T02:04:56.772Z,3.15
2019-01-08T02:07:25.389Z,1.92
2019-01-08T02:09:53.692Z,2.02
2019-01-08T02:12:21.969Z,0.95
2019-01-08T02:14:50.311Z,2.98
2019-01-08T02:17:18.636Z,1.42
2019-01-08T02:19:46.935Z,2.98
2019-01-08T02:22:15.211Z,2.83
2019-01-08T02:24:43.581Z,2.75
2019-01-08T02:27:11.859Z,3.80
2019-01-08T02:29:40.143Z,2.65
2019-01-08T02:32:08.595Z,2.77
2019-01-08T02:34:36.871Z,3.40
2019-01-08T02:37:05.152Z,2.15
2019-01-08T02:39:33.472Z,2.17
2019-01-08T02:42:01.895Z,3.45
2019-01-08T02:44:30.243Z,2.55
2019-01-08T02:46:58.605Z,3.33
2019-01-08T02:49:26.883Z,2.85
2019-01-08T02:51:55.158Z,2.85
2019-01-08T02:54:23.589Z,2.95
2019-01-08T02:56:51.923Z,3.15
2019-01-08T02:59:25.057Z,1.45
2019-01-08T03:01:50.250Z,1.87
2019-01-08T03:04:18.524Z,2.67
2019-01-08T03:06:46.803Z,3.12
2019-01-08T03:09:15.128Z,2.77
2019-01-08T03:11:43.418Z,1.22
2019-01-08T03:14:11.704Z,2.65
2019-01-08T03:16:40.013Z,2.20
2019-01-08T03:19:08.366Z,2.70
2019-01-08T03:21:36.652Z,2.42
2019-01-08T03:24:04.983Z,2.67
2019-01-08T03:26:33.335Z,2.65
2019-01-08T03:29:01.620Z,3.42
2019-01-08T03:31:30.004Z,2.47
2019-01-08T03:33:58.283Z,2.10
2019-01-08T03:36:26.561Z,4.28
2019-01-08T03:38:54.883Z,2.85
2019-01-08T03:41:23.161Z,2.02
2019-01-08T03:43:51.446Z,1.95
2019-01-08T03:46:19.767Z,1.67
2019-01-08T03:48:48.041Z,1.95
2019-01-08T03:51:16.383Z,2.42
2019-01-08T03:53:44.767Z,2.47
2019-01-08T03:56:13.043Z,1.90
2019-01-08T03:58:41.321Z,3.35
2019-01-08T04:01:09.648Z,2.65
2019-01-08T04:03:38.061Z,2.30
2019-01-08T04:06:06.341Z,3.20
2019-01-08T04:08:34.671Z,1.52
2019-01-08T04:11:02.959Z,1.87
2019-01-08T04:13:31.239Z,2.15
2019-01-08T04:16:00.365Z,3.60
2019-01-08T04:18:28.723Z,3.30
2019-01-08T04:20:57.007Z,2.10
2019-01-08T04:23:25.390Z,1.98
2019-01-08T04:25:53.671Z,1.90
2019-01-08T04:28:21.945Z,2.17
2019-01-08T04:30:50.255Z,4.33
2019-01-08T04:33:18.532Z,3.05
2019-01-08T04:35:46.810Z,2.08
2019-01-08T04:38:16.035Z,2.40
2019-01-08T04:40:44.306Z,1.80
2019-01-08T04:43:12.602Z,2.58
2019-01-08T04:45:40.996Z,3.52
2019-01-08T04:48:09.271Z,2.95
2019-01-08T04:50:37.551Z,0.82
2019-01-08T04:53:05.853Z,1.42
2019-01-08T04:55:34.208Z,1.65
2019-01-08T04:58:02.479Z,2.37
2019-01-08T05:00:30.795Z,2.67
2019-01-08T05:02:59.140Z,2.60
2019-01-08T05:05:27.492Z,2.67
2019-01-08T05:07:55.815Z,2.45
2019-01-08T05:10:24.085Z,3.00
2019-01-08T05:12:52.365Z,3.40
2019-01-08T05:15:20.880Z,2.15
2019-01-08T05:17:49.234Z,3.33
2019-01-08T05:20:17.510Z,1.77
2019-01-08T05:22:47.120Z,1.52
2019-01-08T05:25:15.482Z,2.95
2019-01-08T05:27:43.840Z,2.75
2019-01-08T05:30:12.162Z,2.80
2019-01-08T05:32:40.459Z,3.75
2019-01-08T05:35:08.748Z,1.77
2019-01-08T05:37:37.064Z,3.17
2019-01-08T05:40:07.280Z,1.87
2019-01-08T05:42:35.558Z,1.00
2019-01-08T05:45:04.211Z,2.67
2019-01-08T05:47:32.567Z,2.22
2019-01-08T05:50:00.863Z,3.35
2019-01-08T05:52:29.175Z,2.02
2019-01-08T05:54:57.459Z,2.05
2019-01-08T05:57:25.747Z,2.20
2019-01-08T05:59:54.135Z,1.50
2019-01-08T06:02:22.414Z,1.57
2019-01-08T06:04:50.701Z,1.82
2019-01-08T06:07:19.088Z,2.75
2019-01-08T06:09:47.373Z,3.30
2019-01-08T06:12:15.648Z,1.40
2019-01-08T06:14:43.964Z,2.33
2019-01-08T06:17:12.242Z,2.02
2019-01-08T06:19:40.604Z,2.65
2019-01-08T06:22:08.985Z,4.30
2019-01-08T06:24:37.260Z,3.80
2019-01-08T06:27:05.544Z,2.98
2019-01-08T06:29:33.867Z,6.95
2019-01-08T06:32:02.159Z,2.40
2019-01-08T06:34:30.435Z,4.65
2019-01-08T06:36:58.751Z,2.00
2019-01-08T06:39:27.039Z,3.90
2019-01-08T06:41:55.349Z,2.42
2019-01-08T06:44:23.652Z,3.12
2019-01-08T06:46:51.932Z,6.72
2019-01-08T06:49:20.210Z,3.20
2019-01-08T06:51:48.522Z,2.70
2019-01-08T06:54:16.816Z,2.90
2019-01-08T06:56:45.091Z,3.90
2019-01-08T06:59:13.409Z,3.05
2019-01-08T07:01:41.699Z,2.65
2019-01-08T07:04:09.991Z,2.08
2019-01-08T07:06:38.316Z,2.37
2019-01-08T07:09:06.770Z,2.75
2019-01-08T07:11:35.055Z,2.02
2019-01-08T07:14:03.387Z,1.85
2019-01-08T07:16:31.736Z,3.40
2019-01-08T07:19:00.089Z,2.98
2019-01-08T07:21:28.520Z,3.30
2019-01-08T07:23:56.797Z,3.37
2019-01-08T07:26:25.084Z,2.10
2019-01-08T07:28:53.399Z,2.45
2019-01-08T07:31:21.678Z,1.72
2019-01-08T07:33:49.963Z,2.45
2019-01-08T07:36:18.297Z,3.05
2019-01-08T07:38:46.582Z,2.87
2019-01-08T07:41:14.858Z,3.25
2019-01-08T07:43:43.216Z,0.85
2019-01-08T07:46:11.630Z,2.37
2019-01-08T07:48:39.981Z,3.45
2019-01-08T07:51:08.315Z,2.90
2019-01-08T07:53:36.656Z,3.40
2019-01-08T07:56:04.932Z,2.10
2019-01-08T07:58:33.261Z,2.95
2019-01-08T08:01:01.551Z,3.40
2019-01-08T08:03:29.830Z,2.60
2019-01-08T08:05:58.152Z,0.90
2019-01-08T08:08:26.435Z,1.42
2019-01-08T08:10:54.718Z,3.05
2019-01-08T08:13:23.035Z,3.58
2019-01-08T08:15:51.385Z,3.30
2019-01-08T08:18:19.661Z,2.02
2019-01-08T08:20:47.984Z,2.72
2019-01-08T08:23:16.263Z,3.15
2019-01-08T08:25:44.542Z,2.30
2019-01-08T08:28:12.871Z,3.52
2019-01-08T08:30:41.162Z,2.67
2019-01-08T08:33:09.520Z,1.50
2019-01-08T08:35:37.841Z,1.15
2019-01-08T08:38:06.118Z,3.12
2019-01-08T08:40:34.406Z,2.42
2019-01-08T08:43:02.718Z,2.72
2019-01-08T08:45:31.000Z,2.92
2019-01-08T08:47:59.271Z,3.52
2019-01-08T08:50:27.588Z,1.75
2019-01-08T08:52:55.869Z,4.87
2019-01-08T08:55:24.145Z,2.83
2019-01-08T08:57:52.466Z,3.12
2019-01-08T09:00:20.758Z,2.10
2019-01-08T09:02:49.033Z,2.30
2019-01-08T09:05:17.365Z,3.02
2019-01-08T09:07:45.779Z,2.12
2019-01-08T09:10:14.142Z,2.25
2019-01-08T09:12:42.445Z,3.65
2019-01-08T09:15:10.811Z,4.33
2019-01-08T09:17:39.100Z,3.10
2019-01-08T09:20:09.563Z,3.20
2019-01-08T09:22:37.850Z,3.10
2019-01-08T09:25:06.971Z,1.92
2019-01-08T09:27:35.438Z,2.67
2019-01-08T09:30:04.451Z,3.33
2019-01-08T09:32:32.726Z,3.52
2019-01-08T09:35:01.045Z,1.95
2019-01-08T09:37:29.323Z,2.62
2019-01-08T09:39:57.607Z,3.33
2019-01-08T09:42:25.922Z,3.02
2019-01-08T09:44:54.268Z,2.47
2019-01-08T09:47:22.553Z,1.35
2019-01-08T09:49:50.883Z,3.62
2019-01-08T09:52:19.172Z,1.98
2019-01-08T09:54:47.455Z,3.85
2019-01-08T09:57:15.779Z,3.70
2019-01-08T09:59:44.052Z,3.22
2019-01-08T10:02:12.334Z,3.50
2019-01-08T10:04:40.664Z,3.05
2019-01-08T10:07:08.936Z,3.50
2019-01-08T10:09:37.224Z,5.60
2019-01-08T10:12:05.567Z,3.87
2019-01-08T10:14:33.846Z,2.47
2019-01-08T10:17:02.127Z,4.15
2019-01-08T10:19:30.438Z,4.33
2019-01-08T10:21:58.711Z,3.22
2019-01-08T10:24:27.003Z,3.92
2019-01-08T10:26:55.387Z,3.58
2019-01-08T10:29:23.669Z,2.77
2019-01-08T10:31:52.085Z,2.77
2019-01-08T10:34:20.395Z,4.72
2019-01-08T10:36:48.876Z,2.20
2019-01-08T10:39:17.168Z,5.47
2019-01-08T10:41:45.474Z,3.47
2019-01-08T10:44:13.890Z,3.52
2019-01-08T10:46:42.181Z,4.65
2019-01-08T10:49:10.503Z,2.60
2019-01-08T10:51:38.787Z,4.33
2019-01-08T10:54:07.056Z,3.37
2019-01-08T10:56:35.367Z,3.45
2019-01-08T10:59:07.663Z,5.45
2019-01-08T11:01:40.487Z,3.75
2019-01-08T11:04:03.759Z,5.62
2019-01-08T11:06:32.044Z,3.15
2019-01-08T11:09:00.429Z,4.17
2019-01-08T11:11:28.740Z,5.67
2019-01-08T11:13:57.029Z,3.42
2019-01-08T11:16:25.315Z,3.60
2019-01-08T11:18:53.729Z,2.27
2019-01-08T11:21:21.985Z,6.12
2019-01-08T11:23:50.329Z,4.25
2019-01-08T11:26:18.653Z,3.75
2019-01-08T11:28:46.939Z,3.12
2019-01-08T11:31:15.217Z,2.67
2019-01-08T11:33:43.538Z,2.00
2019-01-08T11:36:11.878Z,3.15
2019-01-08T11:38:40.227Z,3.75
2019-01-08T11:41:08.528Z,2.92
2019-01-08T11:43:36.814Z,3.12
2019-01-08T11:46:05.228Z,4.45
2019-01-08T11:48:33.613Z,3.25
2019-01-08T11:51:01.890Z,2.80
2019-01-08T11:53:30.247Z,2.87
2019-01-08T11:55:59.099Z,5.37
2019-01-08T11:58:27.494Z,1.57
2019-01-08T12:00:56.002Z,2.12
2019-01-08T12:03:24.518Z,3.22
2019-01-08T12:05:52.942Z,2.65
2019-01-08T12:08:21.215Z,2.98
2019-01-08T12:10:49.597Z,1.82
2019-01-08T12:13:18.086Z,2.95
2019-01-08T12:15:46.511Z,2.77
2019-01-08T12:18:15.042Z,2.95
2019-01-08T12:20:43.536Z,1.92
2019-01-08T12:23:12.015Z,1.85
2019-01-08T12:25:40.341Z,2.40
2019-01-08T12:28:08.607Z,2.62
2019-01-08T12:30:36.887Z,1.67
2019-01-08T12:33:05.203Z,2.75
2019-01-08T12:35:33.491Z,3.37
2019-01-08T12:38:02.003Z,3.77
2019-01-08T12:40:30.518Z,3.83
2019-01-08T12:42:58.799Z,3.08
2019-01-08T12:45:27.077Z,3.67
2019-01-08T12:47:55.597Z,2.65
2019-01-08T12:50:23.951Z,2.67
2019-01-08T12:52:52.433Z,3.33
2019-01-08T12:55:20.959Z,3.15
2019-01-08T12:57:49.251Z,3.17
2019-01-08T13:00:17.749Z,3.12
2019-01-08T13:02:46.286Z,1.87
2019-01-08T13:05:14.776Z,3.37
2019-01-08T13:07:43.055Z,4.47
2019-01-08T13:10:11.570Z,3.77
2019-01-08T13:12:40.061Z,4.87
2019-01-08T13:15:08.339Z,5.22
2019-01-08T13:17:36.866Z,4.42
2019-01-08T13:20:07.298Z,5.50
2019-01-08T13:22:35.797Z,5.45
2019-01-08T13:25:04.390Z,3.50
2019-01-08T13:27:32.883Z,4.05
2019-01-08T13:30:01.166Z,3.25
2019-01-08T13:32:29.686Z,4.22
2019-01-08T13:34:58.178Z,5.47
2019-01-08T13:37:26.677Z,9.88
2019-01-08T13:39:55.481Z,4.15
2019-01-08T13:42:24.073Z,5.12
2019-01-08T13:44:52.571Z,4.08
2019-01-08T13:47:20.981Z,5.72
2019-01-08T13:49:49.466Z,4.47
2019-01-08T13:52:17.948Z,7.28
2019-01-08T13:54:46.489Z,5.95
2019-01-08T13:57:14.976Z,6.00
2019-01-08T13:59:43.466Z,4.17
2019-01-08T14:02:11.994Z,4.15
2019-01-08T14:04:40.551Z,12.40
2019-01-08T14:07:09.051Z,6.50
2019-01-08T14:09:37.599Z,7.10
2019-01-08T14:12:06.105Z,5.58
2019-01-08T14:14:34.589Z,5.17
2019-01-08T14:17:03.131Z,7.85
2019-01-08T14:19:31.411Z,10.28
2019-01-08T14:21:59.900Z,4.97
2019-01-08T14:24:28.213Z,4.25
2019-01-08T14:26:56.705Z,6.97
2019-01-08T14:29:25.053Z,6.20
2019-01-08T14:31:53.584Z,8.13
2019-01-08T14:34:22.072Z,6.55
2019-01-08T14:36:50.590Z,7.10
2019-01-08T14:39:19.116Z,5.42
2019-01-08T14:41:47.612Z,4.78
2019-01-08T14:44:16.099Z,7.03
2019-01-08T14:46:44.564Z,6.67
2019-01-08T14:49:13.066Z,6.25
2019-01-08T14:51:41.420Z,7.42
2019-01-08T14:54:09.967Z,11.48
2019-01-08T14:56:38.320Z,12.50
2019-01-08T14:59:06.827Z,11.40
2019-01-08T15:01:35.358Z,11.85
2019-01-08T15:04:03.855Z,11.15
2019-01-08T15:06:32.402Z,7.90
2019-01-08T15:09:00.885Z,8.70
2019-01-08T15:11:29.374Z,8.10
2019-01-08T15:13:57.870Z,8.58
2019-01-08T15:16:26.393Z,6.33
2019-01-08T15:18:54.887Z,8.55
2019-01-08T15:21:23.377Z,8.30
2019-01-08T15:23:51.916Z,8.03
2019-01-08T15:26:20.418Z,8.95
2019-01-08T15:28:48.905Z,9.60
2019-01-08T15:31:17.450Z,8.18
2019-01-08T15:33:45.946Z,8.15
2019-01-08T15:36:14.444Z,8.53
2019-01-08T15:38:42.979Z,5.60
2019-01-08T15:41:11.471Z,7.80
2019-01-08T15:43:39.985Z,12.98
2019-01-08T15:46:08.521Z,11.53
2019-01-08T15:48:37.018Z,8.30
2019-01-08T15:51:05.508Z,8.43
2019-01-08T15:53:34.039Z,7.47
2019-01-08T15:56:02.540Z,7.70
2019-01-08T15:58:31.045Z,9.15
2019-01-08T16:00:59.595Z,9.53
2019-01-08T16:03:28.090Z,9.55
2019-01-08T16:05:56.583Z,8.05
2019-01-08T16:08:25.115Z,10.13
2019-01-08T16:10:53.617Z,11.73
2019-01-08T16:13:22.106Z,12.15
2019-01-08T16:15:50.655Z,12.73
2019-01-08T16:18:19.154Z,14.40
2019-01-08T16:20:47.651Z,14.25
2019-01-08T16:23:16.185Z,10.55
2019-01-08T16:25:44.689Z,8.25
2019-01-08T16:28:13.191Z,9.50
2019-01-08T16:30:41.716Z,6.78
2019-01-08T16:33:15.911Z,7.20
2019-01-08T16:35:40.431Z,6.40
2019-01-08T16:38:08.956Z,8.35
2019-01-08T16:40:37.448Z,4.00
2019-01-08T16:43:07.517Z,5.08
2019-01-08T16:45:36.053Z,5.72
2019-01-08T16:48:04.539Z,5.40
2019-01-08T16:50:33.024Z,4.58
2019-01-08T16:53:01.546Z,5.70
2019-01-08T16:55:30.028Z,3.27
2019-01-08T16:57:58.515Z,6.17
2019-01-08T17:00:27.066Z,6.78
2019-01-08T17:02:55.574Z,5.87
2019-01-08T17:05:24.071Z,6.30
2019-01-08T17:07:52.627Z,10.55
2019-01-08T17:10:21.148Z,8.30
2019-01-08T17:12:49.649Z,7.03
2019-01-08T17:15:18.199Z,9.10
2019-01-08T17:17:46.677Z,7.72
2019-01-08T17:20:15.175Z,9.70
2019-01-08T17:22:43.707Z,8.15
2019-01-08T17:25:12.290Z,8.33
2019-01-08T17:27:40.777Z,8.75
2019-01-08T17:30:15.261Z,8.45
2019-01-08T17:32:43.759Z,9.18
2019-01-08T17:35:12.263Z,8.20
2019-01-08T17:37:40.825Z,12.00
2019-01-08T17:40:09.330Z,11.15
2019-01-08T17:42:37.824Z,11.95
2019-01-08T17:45:09.250Z,7.65
2019-01-08T17:47:37.758Z,8.55
2019-01-08T17:50:06.640Z,10.25
2019-01-08T17:52:35.191Z,11.70
2019-01-08T17:55:03.809Z,10.63
2019-01-08T17:57:32.302Z,12.68
2019-01-08T18:00:00.850Z,11.00
2019-01-08T18:02:29.348Z,8.00
2019-01-08T18:04:57.847Z,9.80
2019-01-08T18:07:26.383Z,8.78
2019-01-08T18:09:54.895Z,8.30
2019-01-08T18:12:23.396Z,9.98
2019-01-08T18:14:51.934Z,11.00
2019-01-08T18:17:20.437Z,8.80
2019-01-08T18:19:48.940Z,6.97
2019-01-08T18:22:17.488Z,9.33
2019-01-08T18:24:45.998Z,10.28
2019-01-08T18:27:14.504Z,7.55
2019-01-08T18:29:43.025Z,7.97
2019-01-08T18:32:11.527Z,9.15
2019-01-08T18:34:40.049Z,10.18
2019-01-08T18:37:08.593Z,10.10
2019-01-08T18:39:37.085Z,8.50
2019-01-08T18:42:05.586Z,8.40
2019-01-08T18:44:34.124Z,9.58
2019-01-08T18:47:01.688Z,4.90
2019-01-08T18:49:29.270Z,5.53
2019-01-08T19:25:35.917Z,5.40
2019-01-08T19:28:04.402Z,8.05
2019-01-08T19:30:32.938Z,6.78
2019-01-08T19:33:01.472Z,6.28
2019-01-08T19:35:31.715Z,8.80
2019-01-08T19:38:00.172Z,6.37
2019-01-08T19:40:28.711Z,6.33
2019-01-08T19:42:57.195Z,5.33
2019-01-08T19:45:25.702Z,7.58
2019-01-08T19:47:54.250Z,8.75
2019-01-08T19:50:22.764Z,11.18
2019-01-08T19:52:51.271Z,11.55
2019-01-08T19:55:19.822Z,12.58
2019-01-08T19:57:48.326Z,10.20
2019-01-08T20:00:18.468Z,9.53
2019-01-08T20:02:46.999Z,8.20
2019-01-08T20:05:17.081Z,8.93
2019-01-08T20:07:45.575Z,5.15
2019-01-08T20:10:14.113Z,8.85
2019-01-08T20:12:42.613Z,9.83
2019-01-08T20:18:05.971Z,9.03
2019-01-08T20:20:34.527Z,5.25
2019-01-08T20:23:04.576Z,8.28
2019-01-08T20:25:33.075Z,7.80
2019-01-08T20:28:01.629Z,8.88
2019-01-08T20:30:30.156Z,6.67
2019-01-08T20:32:58.658Z,6.20
2019-01-08T20:35:27.265Z,8.80
2019-01-08T20:37:55.779Z,8.05
2019-01-08T20:40:25.858Z,11.70
2019-01-08T20:42:54.524Z,16.05
2019-01-08T20:45:23.060Z,11.90
2019-01-08T20:47:51.553Z,5.28
2019-01-08T20:50:20.232Z,11.75
2019-01-08T20:52:48.738Z,10.65
2019-01-08T20:55:17.233Z,8.38
2019-01-08T20:57:45.770Z,11.25
2019-01-08T21:00:14.363Z,10.20
2019-01-08T21:02:42.876Z,11.48
2019-01-08T21:05:11.428Z,15.75
2019-01-08T21:07:39.933Z,8.43
2019-01-08T21:10:08.733Z,9.75
2019-01-08T21:12:37.267Z,15.30
2019-01-08T21:15:06.362Z,11.95
2019-01-08T21:17:34.865Z,11.03
2019-01-08T21:20:03.395Z,9.53
2019-01-08T21:22:31.892Z,10.48
2019-01-08T21:25:00.383Z,11.97
2019-01-08T21:27:28.914Z,8.38
2019-01-08T21:29:57.417Z,12.37
2019-01-08T21:32:25.918Z,28.32
2019-01-08T21:34:54.455Z,14.63
2019-01-08T21:37:22.967Z,11.20
2019-01-08T21:39:51.450Z,8.30
2019-01-08T21:42:20.003Z,10.38
2019-01-08T21:44:48.506Z,10.30
2019-01-08T21:47:17.007Z,8.38
2019-01-08T21:49:45.527Z,8.85
2019-01-08T21:52:14.023Z,10.93
2019-01-08T21:54:42.391Z,7.25
2019-01-08T21:57:10.920Z,8.78
2019-01-08T21:59:39.349Z,7.97
2019-01-08T22:02:09.713Z,8.10
2019-01-08T22:04:38.125Z,9.18
2019-01-08T22:07:06.722Z,8.73
2019-01-08T22:09:35.192Z,6.62
2019-01-08T22:12:03.725Z,10.60
2019-01-08T22:14:32.071Z,7.33
2019-01-08T22:17:00.356Z,7.08
2019-01-08T22:19:28.771Z,7.10
2019-01-08T22:21:57.030Z,9.58
2019-01-08T22:24:25.381Z,7.80
2019-01-08T22:26:53.854Z,7.42
2019-01-08T22:29:22.215Z,10.48
2019-01-08T22:31:50.630Z,8.73
2019-01-08T22:34:19.097Z,8.05
2019-01-08T22:36:47.409Z,7.45
2019-01-08T22:39:15.692Z,8.80
2019-01-08T22:41:44.017Z,8.08
2019-01-08T22:44:12.304Z,9.00
2019-01-08T22:46:40.588Z,10.75
2019-01-08T22:49:08.917Z,8.25
2019-01-08T22:51:37.261Z,9.30
2019-01-08T22:54:05.617Z,9.98
2019-01-08T22:56:34.103Z,9.53
2019-01-08T22:59:02.366Z,6.45
2019-01-08T23:01:38.439Z,7.97
2019-01-08T23:04:07.900Z,7.28
2019-01-08T23:06:36.180Z,8.45
2019-01-08T23:09:06.500Z,5.25
2019-01-08T23:11:34.772Z,5.80
2019-01-08T23:14:03.060Z,5.65
2019-01-08T23:16:31.440Z,6.45
2019-01-08T23:18:59.801Z,6.37
2019-01-08T23:21:28.076Z,5.17
2019-01-08T23:23:56.397Z,6.50
2019-01-08T23:26:24.678Z,5.62
2019-01-08T23:28:53.034Z,7.17
2019-01-08T23:31:21.377Z,8.35
2019-01-08T23:33:49.667Z,6.80
2019-01-08T23:36:18.098Z,6.00
2019-01-08T23:38:46.412Z,5.75
2019-01-08T23:41:14.686Z,3.58
2019-01-08T23:43:42.963Z,5.12
2019-01-08T23:46:11.293Z,5.97
2019-01-08T23:48:39.583Z,5.10
2019-01-08T23:51:07.875Z,5.75
2019-01-08T23:53:36.392Z,5.03
2019-01-08T23:56:04.683Z,5.33
2019-01-08T23:58:32.962Z,5.62
